sensor_id;sensor_type;location;lat;lon;timestamp;P1;durP1;ratioP1;P2;durP2;ratioP2
51810;SDS011;52468;40.116;18.296;2023-02-15T00:00:07;31.07;;;21.10;;
51810;SDS011;52468;40.116;18.296;2023-02-15T00:02:39;37.33;;;21.23;;
51810;SDS011;52468;40.116;18.296;2023-02-15T00:05:07;43.80;;;21.97;;
51810;SDS011;52468;40.116;18.296;2023-02-15T00:07:35;33.97;;;19.87;;
51810;SDS011;52468;40.116;18.296;2023-02-15T00:10:03;41.77;;;21.63;;
51810;SDS011;52468;40.116;18.296;2023-02-15T00:12:32;43.57;;;23.33;;
51810;SDS011;52468;40.116;18.296;2023-02-15T00:15:00;34.03;;;20.10;;
51810;SDS011;52468;40.116;18.296;2023-02-15T00:17:28;41.00;;;23.27;;
51810;SDS011;52468;40.116;18.296;2023-02-15T00:19:56;45.00;;;21.73;;
51810;SDS011;52468;40.116;18.296;2023-02-15T00:22:25;53.73;;;27.13;;
51810;SDS011;52468;40.116;18.296;2023-02-15T00:24:53;46.70;;;27.30;;
51810;SDS011;52468;40.116;18.296;2023-02-15T00:27:21;52.07;;;27.33;;
51810;SDS011;52468;40.116;18.296;2023-02-15T00:29:48;56.10;;;25.90;;
51810;SDS011;52468;40.116;18.296;2023-02-15T00:32:16;60.83;;;27.90;;
51810;SDS011;52468;40.116;18.296;2023-02-15T00:34:44;51.50;;;26.97;;
51810;SDS011;52468;40.116;18.296;2023-02-15T00:37:12;55.20;;;26.70;;
51810;SDS011;52468;40.116;18.296;2023-02-15T00:39:40;59.43;;;28.07;;
51810;SDS011;52468;40.116;18.296;2023-02-15T00:42:07;58.43;;;29.73;;
51810;SDS011;52468;40.116;18.296;2023-02-15T00:44:35;63.10;;;28.33;;
51810;SDS011;52468;40.116;18.296;2023-02-15T00:47:03;56.33;;;27.83;;
51810;SDS011;52468;40.116;18.296;2023-02-15T00:49:31;55.50;;;29.93;;
51810;SDS011;52468;40.116;18.296;2023-02-15T00:51:59;61.03;;;29.30;;
51810;SDS011;52468;40.116;18.296;2023-02-15T00:54:26;66.57;;;32.30;;
51810;SDS011;52468;40.116;18.296;2023-02-15T00:56:55;57.63;;;30.43;;
51810;SDS011;52468;40.116;18.296;2023-02-15T00:59:23;57.83;;;32.03;;
51810;SDS011;52468;40.116;18.296;2023-02-15T01:01:51;69.83;;;31.00;;
51810;SDS011;52468;40.116;18.296;2023-02-15T01:04:19;65.10;;;31.57;;
51810;SDS011;52468;40.116;18.296;2023-02-15T01:06:47;56.27;;;30.53;;
51810;SDS011;52468;40.116;18.296;2023-02-15T01:09:14;56.00;;;30.17;;
51810;SDS011;52468;40.116;18.296;2023-02-15T01:11:42;63.07;;;29.97;;
51810;SDS011;52468;40.116;18.296;2023-02-15T01:14:10;55.13;;;29.53;;
51810;SDS011;52468;40.116;18.296;2023-02-15T01:16:38;60.80;;;33.20;;
51810;SDS011;52468;40.116;18.296;2023-02-15T01:19:06;60.80;;;31.33;;
51810;SDS011;52468;40.116;18.296;2023-02-15T01:21:34;69.23;;;33.80;;
51810;SDS011;52468;40.116;18.296;2023-02-15T01:24:02;62.67;;;31.40;;
51810;SDS011;52468;40.116;18.296;2023-02-15T01:26:30;64.40;;;33.70;;
51810;SDS011;52468;40.116;18.296;2023-02-15T01:28:58;65.90;;;31.00;;
51810;SDS011;52468;40.116;18.296;2023-02-15T01:31:26;62.33;;;32.40;;
51810;SDS011;52468;40.116;18.296;2023-02-15T01:33:54;64.23;;;35.17;;
51810;SDS011;52468;40.116;18.296;2023-02-15T01:36:22;65.23;;;33.80;;
51810;SDS011;52468;40.116;18.296;2023-02-15T01:38:51;64.77;;;35.93;;
51810;SDS011;52468;40.116;18.296;2023-02-15T01:41:19;73.77;;;34.90;;
51810;SDS011;52468;40.116;18.296;2023-02-15T01:43:48;80.07;;;34.03;;
51810;SDS011;52468;40.116;18.296;2023-02-15T01:46:22;65.40;;;34.87;;
51810;SDS011;52468;40.116;18.296;2023-02-15T01:49:08;54.87;;;32.10;;
51810;SDS011;52468;40.116;18.296;2023-02-15T01:51:42;62.43;;;30.57;;
51810;SDS011;52468;40.116;18.296;2023-02-15T01:54:19;63.53;;;33.57;;
51810;SDS011;52468;40.116;18.296;2023-02-15T01:56:52;66.17;;;33.40;;
51810;SDS011;52468;40.116;18.296;2023-02-15T01:59:23;73.03;;;34.30;;
51810;SDS011;52468;40.116;18.296;2023-02-15T02:01:53;67.50;;;34.47;;
51810;SDS011;52468;40.116;18.296;2023-02-15T02:04:25;74.03;;;35.40;;
51810;SDS011;52468;40.116;18.296;2023-02-15T02:06:56;70.07;;;37.33;;
51810;SDS011;52468;40.116;18.296;2023-02-15T02:09:25;64.37;;;33.47;;
51810;SDS011;52468;40.116;18.296;2023-02-15T02:11:54;73.47;;;33.30;;
51810;SDS011;52468;40.116;18.296;2023-02-15T02:14:22;61.30;;;32.30;;
51810;SDS011;52468;40.116;18.296;2023-02-15T02:25:52;63.30;;;33.10;;
51810;SDS011;52468;40.116;18.296;2023-02-15T02:31:43;66.20;;;30.43;;
51810;SDS011;52468;40.116;18.296;2023-02-15T02:45:15;67.33;;;34.50;;
51810;SDS011;52468;40.116;18.296;2023-02-15T02:47:53;66.97;;;34.17;;
51810;SDS011;52468;40.116;18.296;2023-02-15T02:50:29;59.33;;;32.63;;
51810;SDS011;52468;40.116;18.296;2023-02-15T02:52:58;61.27;;;32.47;;
51810;SDS011;52468;40.116;18.296;2023-02-15T02:58:03;63.50;;;31.27;;
51810;SDS011;52468;40.116;18.296;2023-02-15T03:00:56;58.20;;;33.40;;
51810;SDS011;52468;40.116;18.296;2023-02-15T03:03:38;66.77;;;31.63;;
51810;SDS011;52468;40.116;18.296;2023-02-15T03:06:30;54.50;;;29.70;;
51810;SDS011;52468;40.116;18.296;2023-02-15T03:09:09;57.77;;;29.83;;
51810;SDS011;52468;40.116;18.296;2023-02-15T03:11:43;57.97;;;31.63;;
51810;SDS011;52468;40.116;18.296;2023-02-15T03:14:14;64.40;;;34.20;;
51810;SDS011;52468;40.116;18.296;2023-02-15T03:16:46;58.10;;;30.50;;
51810;SDS011;52468;40.116;18.296;2023-02-15T03:19:20;56.10;;;31.93;;
51810;SDS011;52468;40.116;18.296;2023-02-15T03:21:56;73.80;;;32.97;;
51810;SDS011;52468;40.116;18.296;2023-02-15T03:27:39;60.73;;;31.93;;
51810;SDS011;52468;40.116;18.296;2023-02-15T03:30:12;56.83;;;30.83;;
51810;SDS011;52468;40.116;18.296;2023-02-15T03:32:42;58.57;;;31.77;;
51810;SDS011;52468;40.116;18.296;2023-02-15T03:35:12;60.80;;;33.07;;
51810;SDS011;52468;40.116;18.296;2023-02-15T03:37:51;62.67;;;31.83;;
51810;SDS011;52468;40.116;18.296;2023-02-15T03:43:24;62.90;;;29.33;;
51810;SDS011;52468;40.116;18.296;2023-02-15T03:46:04;61.50;;;31.80;;
51810;SDS011;52468;40.116;18.296;2023-02-15T03:48:40;53.90;;;31.60;;
51810;SDS011;52468;40.116;18.296;2023-02-15T03:57:02;53.50;;;27.30;;
51810;SDS011;52468;40.116;18.296;2023-02-15T03:59:49;60.03;;;31.00;;
51810;SDS011;52468;40.116;18.296;2023-02-15T04:05:34;61.67;;;31.97;;
51810;SDS011;52468;40.116;18.296;2023-02-15T04:08:02;64.37;;;31.57;;
51810;SDS011;52468;40.116;18.296;2023-02-15T04:10:30;63.00;;;29.90;;
51810;SDS011;52468;40.116;18.296;2023-02-15T04:13:16;60.07;;;32.17;;
51810;SDS011;52468;40.116;18.296;2023-02-15T04:15:45;53.53;;;29.47;;
51810;SDS011;52468;40.116;18.296;2023-02-15T04:18:37;56.50;;;31.20;;
51810;SDS011;52468;40.116;18.296;2023-02-15T04:21:27;56.17;;;30.23;;
51810;SDS011;52468;40.116;18.296;2023-02-15T04:24:15;62.50;;;30.67;;
51810;SDS011;52468;40.116;18.296;2023-02-15T04:27:01;61.20;;;29.73;;
51810;SDS011;52468;40.116;18.296;2023-02-15T04:29:30;57.30;;;30.70;;
51810;SDS011;52468;40.116;18.296;2023-02-15T04:31:59;55.83;;;30.43;;
51810;SDS011;52468;40.116;18.296;2023-02-15T04:34:28;62.53;;;29.97;;
51810;SDS011;52468;40.116;18.296;2023-02-15T04:36:56;66.77;;;31.43;;
51810;SDS011;52468;40.116;18.296;2023-02-15T04:39:24;54.27;;;29.37;;
51810;SDS011;52468;40.116;18.296;2023-02-15T04:41:52;67.97;;;31.03;;
51810;SDS011;52468;40.116;18.296;2023-02-15T04:44:20;54.90;;;28.87;;
51810;SDS011;52468;40.116;18.296;2023-02-15T04:46:48;48.37;;;27.03;;
51810;SDS011;52468;40.116;18.296;2023-02-15T04:49:16;54.80;;;29.30;;
51810;SDS011;52468;40.116;18.296;2023-02-15T04:51:44;54.30;;;26.77;;
51810;SDS011;52468;40.116;18.296;2023-02-15T04:54:12;52.27;;;28.27;;
51810;SDS011;52468;40.116;18.296;2023-02-15T04:56:40;61.27;;;28.83;;
51810;SDS011;52468;40.116;18.296;2023-02-15T04:59:10;63.93;;;30.87;;
51810;SDS011;52468;40.116;18.296;2023-02-15T05:01:38;48.20;;;25.90;;
51810;SDS011;52468;40.116;18.296;2023-02-15T05:04:06;57.07;;;28.73;;
51810;SDS011;52468;40.116;18.296;2023-02-15T05:06:35;59.87;;;30.33;;
51810;SDS011;52468;40.116;18.296;2023-02-15T05:09:03;50.50;;;28.73;;
51810;SDS011;52468;40.116;18.296;2023-02-15T05:11:30;54.60;;;26.30;;
51810;SDS011;52468;40.116;18.296;2023-02-15T05:13:58;60.80;;;27.10;;
51810;SDS011;52468;40.116;18.296;2023-02-15T05:16:26;51.13;;;26.40;;
51810;SDS011;52468;40.116;18.296;2023-02-15T05:18:55;52.27;;;28.10;;
51810;SDS011;52468;40.116;18.296;2023-02-15T05:21:23;58.20;;;28.07;;
51810;SDS011;52468;40.116;18.296;2023-02-15T05:23:51;46.27;;;26.80;;
51810;SDS011;52468;40.116;18.296;2023-02-15T05:26:20;43.03;;;25.80;;
51810;SDS011;52468;40.116;18.296;2023-02-15T05:29:08;50.53;;;25.40;;
51810;SDS011;52468;40.116;18.296;2023-02-15T05:31:36;51.97;;;24.57;;
51810;SDS011;52468;40.116;18.296;2023-02-15T05:34:05;46.87;;;24.60;;
51810;SDS011;52468;40.116;18.296;2023-02-15T05:36:33;43.90;;;24.33;;
51810;SDS011;52468;40.116;18.296;2023-02-15T05:39:01;48.17;;;24.77;;
51810;SDS011;52468;40.116;18.296;2023-02-15T05:41:31;39.50;;;22.60;;
51810;SDS011;52468;40.116;18.296;2023-02-15T05:43:58;51.87;;;24.27;;
51810;SDS011;52468;40.116;18.296;2023-02-15T05:46:26;44.93;;;24.23;;
51810;SDS011;52468;40.116;18.296;2023-02-15T05:48:54;41.57;;;23.13;;
51810;SDS011;52468;40.116;18.296;2023-02-15T05:51:22;42.17;;;22.30;;
51810;SDS011;52468;40.116;18.296;2023-02-15T05:53:50;56.53;;;26.40;;
51810;SDS011;52468;40.116;18.296;2023-02-15T05:56:18;47.33;;;25.00;;
51810;SDS011;52468;40.116;18.296;2023-02-15T05:58:46;49.13;;;25.33;;
51810;SDS011;52468;40.116;18.296;2023-02-15T06:01:15;46.70;;;24.00;;
51810;SDS011;52468;40.116;18.296;2023-02-15T06:03:45;47.97;;;25.73;;
51810;SDS011;52468;40.116;18.296;2023-02-15T06:06:13;44.40;;;24.33;;
51810;SDS011;52468;40.116;18.296;2023-02-15T06:08:41;43.83;;;25.63;;
51810;SDS011;52468;40.116;18.296;2023-02-15T06:11:09;47.70;;;26.67;;
51810;SDS011;52468;40.116;18.296;2023-02-15T06:13:38;47.57;;;25.87;;
51810;SDS011;52468;40.116;18.296;2023-02-15T06:16:06;49.37;;;24.47;;
51810;SDS011;52468;40.116;18.296;2023-02-15T06:18:34;50.27;;;27.73;;
51810;SDS011;52468;40.116;18.296;2023-02-15T06:21:02;45.87;;;27.03;;
51810;SDS011;52468;40.116;18.296;2023-02-15T06:23:30;49.37;;;28.07;;
51810;SDS011;52468;40.116;18.296;2023-02-15T06:25:58;48.73;;;27.17;;
51810;SDS011;52468;40.116;18.296;2023-02-15T06:28:26;54.20;;;28.90;;
51810;SDS011;52468;40.116;18.296;2023-02-15T06:30:53;51.40;;;25.80;;
51810;SDS011;52468;40.116;18.296;2023-02-15T06:33:21;56.60;;;27.40;;
51810;SDS011;52468;40.116;18.296;2023-02-15T06:35:50;51.83;;;25.57;;
51810;SDS011;52468;40.116;18.296;2023-02-15T06:38:17;51.60;;;24.70;;
51810;SDS011;52468;40.116;18.296;2023-02-15T06:40:45;40.83;;;20.87;;
51810;SDS011;52468;40.116;18.296;2023-02-15T06:43:16;40.43;;;21.87;;
51810;SDS011;52468;40.116;18.296;2023-02-15T06:45:50;40.30;;;22.00;;
51810;SDS011;52468;40.116;18.296;2023-02-15T06:48:17;40.57;;;22.70;;
51810;SDS011;52468;40.116;18.296;2023-02-15T06:50:45;37.97;;;23.20;;
51810;SDS011;52468;40.116;18.296;2023-02-15T06:53:13;33.13;;;20.60;;
51810;SDS011;52468;40.116;18.296;2023-02-15T06:55:41;31.20;;;19.77;;
51810;SDS011;52468;40.116;18.296;2023-02-15T06:58:09;34.67;;;19.50;;
51810;SDS011;52468;40.116;18.296;2023-02-15T07:00:36;39.30;;;21.27;;
51810;SDS011;52468;40.116;18.296;2023-02-15T07:03:04;35.47;;;19.07;;
51810;SDS011;52468;40.116;18.296;2023-02-15T07:05:33;34.50;;;20.87;;
51810;SDS011;52468;40.116;18.296;2023-02-15T07:08:01;35.67;;;19.47;;
51810;SDS011;52468;40.116;18.296;2023-02-15T07:10:29;36.43;;;20.90;;
51810;SDS011;52468;40.116;18.296;2023-02-15T07:12:57;35.43;;;20.53;;
51810;SDS011;52468;40.116;18.296;2023-02-15T07:15:25;31.93;;;19.57;;
51810;SDS011;52468;40.116;18.296;2023-02-15T07:17:52;36.50;;;20.70;;
51810;SDS011;52468;40.116;18.296;2023-02-15T07:20:21;36.10;;;18.63;;
51810;SDS011;52468;40.116;18.296;2023-02-15T07:22:50;34.10;;;19.83;;
51810;SDS011;52468;40.116;18.296;2023-02-15T07:25:18;29.13;;;16.80;;
51810;SDS011;52468;40.116;18.296;2023-02-15T07:27:46;33.63;;;19.00;;
51810;SDS011;52468;40.116;18.296;2023-02-15T07:32:43;34.30;;;18.53;;
51810;SDS011;52468;40.116;18.296;2023-02-15T07:35:32;25.53;;;15.80;;
51810;SDS011;52468;40.116;18.296;2023-02-15T07:38:00;25.87;;;17.80;;
51810;SDS011;52468;40.116;18.296;2023-02-15T07:40:28;24.53;;;16.47;;
51810;SDS011;52468;40.116;18.296;2023-02-15T07:42:57;26.87;;;15.53;;
51810;SDS011;52468;40.116;18.296;2023-02-15T07:45:26;27.50;;;13.67;;
51810;SDS011;52468;40.116;18.296;2023-02-15T07:47:54;25.23;;;15.10;;
51810;SDS011;52468;40.116;18.296;2023-02-15T07:50:22;27.87;;;14.27;;
51810;SDS011;52468;40.116;18.296;2023-02-15T07:52:50;23.70;;;12.97;;
51810;SDS011;52468;40.116;18.296;2023-02-15T07:55:17;31.00;;;14.70;;
51810;SDS011;52468;40.116;18.296;2023-02-15T07:57:46;27.10;;;15.47;;
51810;SDS011;52468;40.116;18.296;2023-02-15T08:00:16;22.77;;;13.30;;
51810;SDS011;52468;40.116;18.296;2023-02-15T08:02:48;27.30;;;13.70;;
51810;SDS011;52468;40.116;18.296;2023-02-15T08:05:40;22.60;;;12.30;;
51810;SDS011;52468;40.116;18.296;2023-02-15T08:08:13;28.70;;;14.05;;
51810;SDS011;52468;40.116;18.296;2023-02-15T08:13:56;22.27;;;13.87;;
51810;SDS011;52468;40.116;18.296;2023-02-15T08:16:31;20.50;;;14.17;;
51810;SDS011;52468;40.116;18.296;2023-02-15T08:19:02;27.97;;;12.93;;
51810;SDS011;52468;40.116;18.296;2023-02-15T08:21:36;21.30;;;12.80;;
51810;SDS011;52468;40.116;18.296;2023-02-15T08:24:07;19.37;;;11.43;;
51810;SDS011;52468;40.116;18.296;2023-02-15T08:26:36;19.93;;;13.97;;
51810;SDS011;52468;40.116;18.296;2023-02-15T08:29:08;19.83;;;13.17;;
51810;SDS011;52468;40.116;18.296;2023-02-15T08:31:36;18.03;;;11.90;;
51810;SDS011;52468;40.116;18.296;2023-02-15T08:34:04;22.33;;;14.07;;
51810;SDS011;52468;40.116;18.296;2023-02-15T08:36:33;21.33;;;11.73;;
51810;SDS011;52468;40.116;18.296;2023-02-15T08:39:03;14.97;;;11.23;;
51810;SDS011;52468;40.116;18.296;2023-02-15T08:41:33;17.87;;;11.23;;
51810;SDS011;52468;40.116;18.296;2023-02-15T08:44:04;24.80;;;12.83;;
51810;SDS011;52468;40.116;18.296;2023-02-15T08:46:35;25.20;;;12.87;;
51810;SDS011;52468;40.116;18.296;2023-02-15T08:49:05;17.50;;;10.57;;
51810;SDS011;52468;40.116;18.296;2023-02-15T08:51:34;19.57;;;11.73;;
51810;SDS011;52468;40.116;18.296;2023-02-15T08:54:05;15.43;;;10.73;;
51810;SDS011;52468;40.116;18.296;2023-02-15T08:56:36;22.70;;;9.53;;
51810;SDS011;52468;40.116;18.296;2023-02-15T08:59:07;14.97;;;9.80;;
51810;SDS011;52468;40.116;18.296;2023-02-15T09:01:39;14.63;;;9.68;;
51810;SDS011;52468;40.116;18.296;2023-02-15T09:04:07;16.07;;;9.43;;
51810;SDS011;52468;40.116;18.296;2023-02-15T09:06:36;18.83;;;10.70;;
51810;SDS011;52468;40.116;18.296;2023-02-15T09:09:06;17.60;;;9.77;;
51810;SDS011;52468;40.116;18.296;2023-02-15T09:11:36;19.13;;;10.07;;
51810;SDS011;52468;40.116;18.296;2023-02-15T09:14:07;13.77;;;9.53;;
51810;SDS011;52468;40.116;18.296;2023-02-15T09:16:37;15.73;;;8.70;;
51810;SDS011;52468;40.116;18.296;2023-02-15T09:19:05;14.13;;;10.00;;
51810;SDS011;52468;40.116;18.296;2023-02-15T09:21:35;15.90;;;8.97;;
51810;SDS011;52468;40.116;18.296;2023-02-15T09:24:05;12.80;;;7.43;;
51810;SDS011;52468;40.116;18.296;2023-02-15T09:26:38;10.50;;;6.73;;
51810;SDS011;52468;40.116;18.296;2023-02-15T09:29:08;10.53;;;6.60;;
51810;SDS011;52468;40.116;18.296;2023-02-15T09:31:41;12.07;;;6.67;;
51810;SDS011;52468;40.116;18.296;2023-02-15T09:34:15;11.87;;;6.43;;
51810;SDS011;52468;40.116;18.296;2023-02-15T09:36:45;14.60;;;8.23;;
51810;SDS011;52468;40.116;18.296;2023-02-15T09:39:23;11.13;;;6.37;;
51810;SDS011;52468;40.116;18.296;2023-02-15T09:46:58;12.70;;;7.20;;
51810;SDS011;52468;40.116;18.296;2023-02-15T09:57:52;12.40;;;7.07;;
51810;SDS011;52468;40.116;18.296;2023-02-15T10:03:35;10.83;;;8.00;;
51810;SDS011;52468;40.116;18.296;2023-02-15T10:06:35;10.73;;;8.00;;
51810;SDS011;52468;40.116;18.296;2023-02-15T10:14:56;12.30;;;6.97;;
51810;SDS011;52468;40.116;18.296;2023-02-15T10:23:05;11.00;;;7.77;;
51810;SDS011;52468;40.116;18.296;2023-02-15T10:32:13;8.20;;;6.07;;
51810;SDS011;52468;40.116;18.296;2023-02-15T10:34:31;12.07;;;6.43;;
51810;SDS011;52468;40.116;18.296;2023-02-15T10:45:20;12.63;;;7.73;;
51810;SDS011;52468;40.116;18.296;2023-02-15T10:48:00;9.80;;;6.23;;
51810;SDS011;52468;40.116;18.296;2023-02-15T10:58:57;11.27;;;5.43;;
51810;SDS011;52468;40.116;18.296;2023-02-15T11:07:20;7.60;;;5.37;;
51810;SDS011;52468;40.116;18.296;2023-02-15T11:12:46;9.47;;;6.73;;
51810;SDS011;52468;40.116;18.296;2023-02-15T11:17:56;6.73;;;4.80;;
51810;SDS011;52468;40.116;18.296;2023-02-15T11:23:32;7.77;;;4.83;;
51810;SDS011;52468;40.116;18.296;2023-02-15T11:26:04;11.47;;;6.33;;
51810;SDS011;52468;40.116;18.296;2023-02-15T11:28:55;6.27;;;4.63;;
51810;SDS011;52468;40.116;18.296;2023-02-15T11:31:36;11.80;;;6.40;;
51810;SDS011;52468;40.116;18.296;2023-02-15T11:34:40;7.03;;;5.30;;
51810;SDS011;52468;40.116;18.296;2023-02-15T11:37:23;9.83;;;5.60;;
51810;SDS011;52468;40.116;18.296;2023-02-15T11:39:58;9.13;;;5.63;;
51810;SDS011;52468;40.116;18.296;2023-02-15T11:42:30;10.03;;;6.87;;
51810;SDS011;52468;40.116;18.296;2023-02-15T11:47:45;18.53;;;11.10;;
51810;SDS011;52468;40.116;18.296;2023-02-15T11:50:17;13.33;;;6.50;;
51810;SDS011;52468;40.116;18.296;2023-02-15T11:52:49;8.27;;;6.43;;
51810;SDS011;52468;40.116;18.296;2023-02-15T11:55:21;7.40;;;5.27;;
51810;SDS011;52468;40.116;18.296;2023-02-15T12:00:52;8.77;;;7.27;;
51810;SDS011;52468;40.116;18.296;2023-02-15T12:03:49;9.93;;;6.20;;
51810;SDS011;52468;40.116;18.296;2023-02-15T12:09:01;10.27;;;6.83;;
51810;SDS011;52468;40.116;18.296;2023-02-15T12:11:39;9.83;;;5.30;;
51810;SDS011;52468;40.116;18.296;2023-02-15T12:14:09;8.47;;;6.20;;
51810;SDS011;52468;40.116;18.296;2023-02-15T12:16:48;12.30;;;7.00;;
51810;SDS011;52468;40.116;18.296;2023-02-15T12:21:46;10.90;;;6.70;;
51810;SDS011;52468;40.116;18.296;2023-02-15T12:24:19;9.63;;;7.15;;
51810;SDS011;52468;40.116;18.296;2023-02-15T12:27:01;9.80;;;6.43;;
51810;SDS011;52468;40.116;18.296;2023-02-15T12:32:24;12.33;;;7.03;;
51810;SDS011;52468;40.116;18.296;2023-02-15T12:37:40;10.23;;;6.33;;
51810;SDS011;52468;40.116;18.296;2023-02-15T12:40:33;11.80;;;7.33;;
51810;SDS011;52468;40.116;18.296;2023-02-15T12:43:03;8.40;;;7.37;;
51810;SDS011;52468;40.116;18.296;2023-02-15T12:45:36;11.73;;;7.78;;
51810;SDS011;52468;40.116;18.296;2023-02-15T12:48:09;9.53;;;7.70;;
51810;SDS011;52468;40.116;18.296;2023-02-15T12:50:37;15.20;;;7.83;;
51810;SDS011;52468;40.116;18.296;2023-02-15T12:53:14;9.47;;;7.37;;
51810;SDS011;52468;40.116;18.296;2023-02-15T12:55:49;11.40;;;7.70;;
51810;SDS011;52468;40.116;18.296;2023-02-15T12:58:22;8.27;;;6.47;;
51810;SDS011;52468;40.116;18.296;2023-02-15T13:03:31;11.63;;;7.53;;
51810;SDS011;52468;40.116;18.296;2023-02-15T13:06:00;13.87;;;8.13;;
51810;SDS011;52468;40.116;18.296;2023-02-15T13:08:36;10.23;;;7.37;;
51810;SDS011;52468;40.116;18.296;2023-02-15T13:11:19;11.80;;;7.43;;
51810;SDS011;52468;40.116;18.296;2023-02-15T13:16:44;9.30;;;6.83;;
51810;SDS011;52468;40.116;18.296;2023-02-15T13:21:44;12.17;;;6.80;;
51810;SDS011;52468;40.116;18.296;2023-02-15T13:24:28;10.57;;;8.50;;
51810;SDS011;52468;40.116;18.296;2023-02-15T13:27:00;13.47;;;8.07;;
51810;SDS011;52468;40.116;18.296;2023-02-15T13:29:43;11.37;;;6.63;;
51810;SDS011;52468;40.116;18.296;2023-02-15T13:34:50;10.40;;;6.80;;
51810;SDS011;52468;40.116;18.296;2023-02-15T13:40:15;15.07;;;9.40;;
51810;SDS011;52468;40.116;18.296;2023-02-15T13:48:15;14.77;;;9.23;;
51810;SDS011;52468;40.116;18.296;2023-02-15T14:07:20;9.87;;;7.27;;
51810;SDS011;52468;40.116;18.296;2023-02-15T14:16:03;16.50;;;9.20;;
51810;SDS011;52468;40.116;18.296;2023-02-15T14:35:13;12.13;;;8.20;;
51810;SDS011;52468;40.116;18.296;2023-02-15T14:40:57;12.80;;;7.90;;
51810;SDS011;52468;40.116;18.296;2023-02-15T14:49:11;8.83;;;6.40;;
51810;SDS011;52468;40.116;18.296;2023-02-15T14:56:45;9.17;;;6.03;;
51810;SDS011;52468;40.116;18.296;2023-02-15T14:59:14;10.93;;;7.53;;
51810;SDS011;52468;40.116;18.296;2023-02-15T15:02:01;13.93;;;9.43;;
51810;SDS011;52468;40.116;18.296;2023-02-15T15:04:35;13.53;;;9.17;;
51810;SDS011;52468;40.116;18.296;2023-02-15T15:09:40;9.53;;;7.17;;
51810;SDS011;52468;40.116;18.296;2023-02-15T15:12:35;9.87;;;7.47;;
51810;SDS011;52468;40.116;18.296;2023-02-15T15:15:06;9.47;;;7.57;;
51810;SDS011;52468;40.116;18.296;2023-02-15T15:20:10;10.90;;;7.10;;
51810;SDS011;52468;40.116;18.296;2023-02-15T15:22:41;12.50;;;9.60;;
51810;SDS011;52468;40.116;18.296;2023-02-15T15:28:00;12.10;;;9.17;;
51810;SDS011;52468;40.116;18.296;2023-02-15T15:33:11;9.73;;;7.10;;
51810;SDS011;52468;40.116;18.296;2023-02-15T15:44:40;14.73;;;8.27;;
51810;SDS011;52468;40.116;18.296;2023-02-15T15:47:27;19.57;;;12.83;;
51810;SDS011;52468;40.116;18.296;2023-02-15T15:50:04;26.87;;;16.47;;
51810;SDS011;52468;40.116;18.296;2023-02-15T15:52:42;13.13;;;8.90;;
51810;SDS011;52468;40.116;18.296;2023-02-15T15:55:18;14.10;;;8.47;;
51810;SDS011;52468;40.116;18.296;2023-02-15T15:57:53;17.10;;;8.83;;
51810;SDS011;52468;40.116;18.296;2023-02-15T16:00:41;11.57;;;7.23;;
51810;SDS011;52468;40.116;18.296;2023-02-15T16:03:15;11.70;;;7.50;;
51810;SDS011;52468;40.116;18.296;2023-02-15T16:05:47;12.53;;;7.20;;
51810;SDS011;52468;40.116;18.296;2023-02-15T16:10:56;14.77;;;8.43;;
51810;SDS011;52468;40.116;18.296;2023-02-15T16:13:25;16.70;;;9.83;;
51810;SDS011;52468;40.116;18.296;2023-02-15T16:15:54;12.73;;;8.70;;
51810;SDS011;52468;40.116;18.296;2023-02-15T16:18:23;14.03;;;9.10;;
51810;SDS011;52468;40.116;18.296;2023-02-15T16:20:55;15.17;;;8.80;;
51810;SDS011;52468;40.116;18.296;2023-02-15T16:28:39;17.33;;;11.83;;
51810;SDS011;52468;40.116;18.296;2023-02-15T16:31:10;16.83;;;11.07;;
51810;SDS011;52468;40.116;18.296;2023-02-15T16:33:40;22.95;;;14.88;;
51810;SDS011;52468;40.116;18.296;2023-02-15T16:36:10;21.50;;;14.70;;
51810;SDS011;52468;40.116;18.296;2023-02-15T16:41:29;19.13;;;12.37;;
51810;SDS011;52468;40.116;18.296;2023-02-15T16:43:58;21.53;;;13.73;;
51810;SDS011;52468;40.116;18.296;2023-02-15T16:46:40;17.83;;;11.93;;
51810;SDS011;52468;40.116;18.296;2023-02-15T16:49:15;35.43;;;21.20;;
51810;SDS011;52468;40.116;18.296;2023-02-15T16:51:55;32.93;;;22.73;;
51810;SDS011;52468;40.116;18.296;2023-02-15T16:54:24;26.43;;;15.47;;
51810;SDS011;52468;40.116;18.296;2023-02-15T16:56:53;17.43;;;11.80;;
51810;SDS011;52468;40.116;18.296;2023-02-15T17:01:58;34.87;;;21.20;;
51810;SDS011;52468;40.116;18.296;2023-02-15T17:04:28;33.67;;;22.27;;
51810;SDS011;52468;40.116;18.296;2023-02-15T17:06:59;42.67;;;30.17;;
51810;SDS011;52468;40.116;18.296;2023-02-15T17:09:30;25.23;;;16.87;;
51810;SDS011;52468;40.116;18.296;2023-02-15T17:12:00;24.00;;;14.27;;
51810;SDS011;52468;40.116;18.296;2023-02-15T17:14:30;25.43;;;15.47;;
51810;SDS011;52468;40.116;18.296;2023-02-15T17:22:29;38.23;;;22.53;;
51810;SDS011;52468;40.116;18.296;2023-02-15T17:24:58;42.27;;;23.20;;
51810;SDS011;52468;40.116;18.296;2023-02-15T17:27:28;39.33;;;22.67;;
51810;SDS011;52468;40.116;18.296;2023-02-15T17:30:00;33.37;;;19.70;;
51810;SDS011;52468;40.116;18.296;2023-02-15T17:32:43;32.97;;;21.53;;
51810;SDS011;52468;40.116;18.296;2023-02-15T17:35:24;46.90;;;29.60;;
51810;SDS011;52468;40.116;18.296;2023-02-15T17:40:47;37.90;;;21.83;;
51810;SDS011;52468;40.116;18.296;2023-02-15T17:43:14;32.80;;;19.10;;
51810;SDS011;52468;40.116;18.296;2023-02-15T17:45:44;31.93;;;22.57;;
51810;SDS011;52468;40.116;18.296;2023-02-15T17:48:20;36.25;;;22.35;;
51810;SDS011;52468;40.116;18.296;2023-02-15T17:50:48;42.38;;;25.48;;
51810;SDS011;52468;40.116;18.296;2023-02-15T17:53:16;36.30;;;24.53;;
51810;SDS011;52468;40.116;18.296;2023-02-15T17:55:45;37.07;;;24.63;;
51810;SDS011;52468;40.116;18.296;2023-02-15T17:58:13;42.93;;;25.93;;
51810;SDS011;52468;40.116;18.296;2023-02-15T18:00:49;46.47;;;23.97;;
51810;SDS011;52468;40.116;18.296;2023-02-15T18:03:46;40.00;;;25.67;;
51810;SDS011;52468;40.116;18.296;2023-02-15T18:06:34;40.73;;;25.97;;
51810;SDS011;52468;40.116;18.296;2023-02-15T18:09:26;36.87;;;24.03;;
51810;SDS011;52468;40.116;18.296;2023-02-15T18:14:43;34.43;;;24.47;;
51810;SDS011;52468;40.116;18.296;2023-02-15T18:17:11;35.93;;;26.83;;
51810;SDS011;52468;40.116;18.296;2023-02-15T18:19:42;37.67;;;25.30;;
51810;SDS011;52468;40.116;18.296;2023-02-15T18:22:17;38.90;;;26.10;;
51810;SDS011;52468;40.116;18.296;2023-02-15T18:24:46;31.98;;;22.63;;
51810;SDS011;52468;40.116;18.296;2023-02-15T18:27:15;36.10;;;23.00;;
51810;SDS011;52468;40.116;18.296;2023-02-15T18:29:43;35.07;;;22.57;;
51810;SDS011;52468;40.116;18.296;2023-02-15T18:32:17;33.63;;;21.77;;
51810;SDS011;52468;40.116;18.296;2023-02-15T18:34:49;30.10;;;20.67;;
51810;SDS011;52468;40.116;18.296;2023-02-15T18:37:18;38.37;;;26.37;;
51810;SDS011;52468;40.116;18.296;2023-02-15T18:39:49;37.40;;;27.00;;
51810;SDS011;52468;40.116;18.296;2023-02-15T18:42:24;40.50;;;26.37;;
51810;SDS011;52468;40.116;18.296;2023-02-15T18:45:00;39.50;;;25.50;;